Boulder, CO (80301)

10:39 AM MST on February 11, 2016 (GMT -0700)
63rd St and Jay Rd | | Change Station
CLOSE
Current Station
Personal Weather Station
Location: Boulder, CO
Elevation: 5202 ft
Nearby Weather Stations

Elev 5202 ft 40.06 °N, 105.21 °W | Updated 9 seconds ago

Clear
Clear
60.1 °F
Feels Like 60.1 °F
N
11.0
Wind Variable Wind from West
Gusts 27.0 mph

Today
High -- | Low -- °F
--% Chance of Precip.
Yesterday
High -- | Low -- °F
Precip. -- in
Pressure 30.12 in
Visibility 10.0 miles
Clouds Clear
Dew Point 16 °F
Humidity 18%
Rainfall 0.00 in
Snow Depth Not available.
6:59 AM 5:31 PM
Waxing Crescent, 13% visible
METAR KBDU 111737Z AUTO 23015G29KT 10SM CLR 17/M09 A3012 RMK AO2
Pressure 30.12 in
Visibility 10.0 miles
Clouds Clear
Dew Point 16 °F
Humidity 18%
Rainfall 0.00 in
Snow Depth Not available.
6:59 AM 5:31 PM
Waxing Crescent, 13% visible
METAR KBDU 111737Z AUTO 23015G29KT 10SM CLR 17/M09 A3012 RMK AO2

10-Day Weather Forecast

Almanac

Astronomy

Feb. 11, 2016 Rise Set
Actual Time
Civil Twilight
Nautical Twilight
Astronomical Twilight
Moon
Length of Visible Light
Length of Day
Tomorrow will be .
, % of the Moon is Illuminated

Today's Extremes

State Highs State Lows

Community

WunderPhotos

Upload Photos

1,892,109 photos uploaded!

WunderBlog® & News

Nearby

Air Quality

  Air Quality AQ Index Pollutant
Not available.

Snow Depth

Station Depth Elevation

Earthquake Activity

City Distance Mag. Time & Date
Minimum magnitude displayed is 2.5.

Coastal Water Temperatures

Place Temperature

Stations

Nearby Weather Stations

Station Location Temp. Windchill Dew Point Humidity Wind Precip. Elev Updated Type
                   

Watches & Warnings

There are currently no watches in effect.